createdAt,value
2022-08-25T00:00:23.517Z,3.77
2022-08-25T00:02:56.053Z,3.40
2022-08-25T00:05:32.454Z,4.20
2022-08-25T00:08:06.403Z,3.50
2022-08-25T00:10:40.157Z,3.93
2022-08-25T00:13:09.984Z,3.90
2022-08-25T00:15:38.554Z,3.40
2022-08-25T00:18:19.542Z,3.50
2022-08-25T00:20:49.827Z,3.87
2022-08-25T00:23:19.243Z,4.00
2022-08-25T00:25:47.698Z,3.57
2022-08-25T00:28:16.931Z,3.47
2022-08-25T00:30:45.956Z,3.77
2022-08-25T00:33:14.060Z,4.10
2022-08-25T00:35:42.590Z,3.67
2022-08-25T00:38:12.828Z,3.50
2022-08-25T00:40:42.893Z,4.17
2022-08-25T00:43:12.376Z,3.80
2022-08-25T00:45:40.869Z,4.10
2022-08-25T00:48:08.430Z,3.90
2022-08-25T00:50:36.500Z,3.80
2022-08-25T00:53:07.400Z,4.40
2022-08-25T00:55:40.336Z,4.07
2022-08-25T00:58:25.761Z,3.83
2022-08-25T01:00:57.955Z,3.93
2022-08-25T01:03:33.041Z,3.63
2022-08-25T01:06:05.926Z,4.00
2022-08-25T01:08:34.733Z,3.60
2022-08-25T01:11:10.640Z,4.23
2022-08-25T01:13:56.661Z,4.70
2022-08-25T01:16:25.246Z,3.83
2022-08-25T01:19:00.629Z,3.50
2022-08-25T01:21:34.577Z,4.13
2022-08-25T01:24:02.579Z,3.90
2022-08-25T01:26:35.346Z,5.03
2022-08-25T01:29:21.668Z,3.97
2022-08-25T01:31:57.514Z,3.90
2022-08-25T01:34:31.618Z,3.10
2022-08-25T01:37:01.393Z,3.60
2022-08-25T01:39:34.163Z,5.13
2022-08-25T01:42:09.114Z,4.37
2022-08-25T01:44:45.237Z,4.10
2022-08-25T01:47:15.350Z,3.57
2022-08-25T01:49:43.276Z,4.17
2022-08-25T01:52:56.470Z,3.80
2022-08-25T01:55:24.455Z,4.07
2022-08-25T01:57:52.524Z,4.13
2022-08-25T02:00:24.276Z,3.90
2022-08-25T02:02:54.156Z,3.30
2022-08-25T02:05:23.855Z,4.40
2022-08-25T02:07:51.678Z,3.93
2022-08-25T02:10:19.314Z,4.50
2022-08-25T02:12:46.848Z,3.87
2022-08-25T02:15:14.666Z,3.73
2022-08-25T02:17:42.225Z,3.90
2022-08-25T02:20:12.377Z,4.47
2022-08-25T02:22:40.725Z,3.33
2022-08-25T02:25:12.662Z,4.20
2022-08-25T02:27:40.168Z,4.03
2022-08-25T02:30:09.083Z,4.00
2022-08-25T02:32:36.947Z,4.13
2022-08-25T02:35:07.058Z,4.50
2022-08-25T02:37:36.211Z,4.47
2022-08-25T02:40:06.793Z,4.67
2022-08-25T02:42:34.610Z,4.50
2022-08-25T02:45:02.329Z,4.90
2022-08-25T02:47:31.986Z,3.90
2022-08-25T02:49:59.822Z,4.20
2022-08-25T02:52:27.666Z,4.20
2022-08-25T02:54:55.658Z,4.27
2022-08-25T02:57:23.205Z,4.33
2022-08-25T02:59:51.834Z,4.47
2022-08-25T03:02:22.290Z,4.17
2022-08-25T03:04:52.290Z,4.00
2022-08-25T03:07:22.714Z,3.80
2022-08-25T03:09:52.363Z,3.97
2022-08-25T03:12:20.660Z,4.40
2022-08-25T03:14:48.351Z,4.70
2022-08-25T03:17:15.939Z,3.77
2022-08-25T03:19:43.441Z,3.70
2022-08-25T03:22:10.952Z,3.87
2022-08-25T03:24:38.494Z,4.10
2022-08-25T03:27:07.112Z,3.90
2022-08-25T03:29:34.892Z,4.40
2022-08-25T03:32:03.980Z,4.07
2022-08-25T03:34:32.202Z,4.80
2022-08-25T03:36:59.904Z,4.03
2022-08-25T03:39:29.102Z,4.50
2022-08-25T03:41:57.447Z,3.77
2022-08-25T03:44:24.988Z,4.33
2022-08-25T03:46:53.299Z,3.80
2022-08-25T03:49:24.686Z,3.50
2022-08-25T03:51:55.728Z,4.60
2022-08-25T03:54:27.855Z,4.20
2022-08-25T03:56:57.218Z,3.70
2022-08-25T03:59:25.730Z,4.00
2022-08-25T04:01:55.404Z,4.03
2022-08-25T04:04:24.326Z,3.80
2022-08-25T04:06:53.146Z,4.30
2022-08-25T04:09:20.791Z,3.70
2022-08-25T04:11:49.296Z,4.40
2022-08-25T04:14:23.685Z,4.27
2022-08-25T04:16:53.246Z,4.00
2022-08-25T04:19:22.327Z,4.20
2022-08-25T04:21:51.717Z,3.40
2022-08-25T04:24:24.781Z,4.33
2022-08-25T04:26:53.877Z,4.53
2022-08-25T04:29:24.918Z,4.80
2022-08-25T04:31:55.810Z,4.20
2022-08-25T04:34:30.289Z,4.03
2022-08-25T04:37:07.833Z,4.67
2022-08-25T04:39:35.888Z,3.50
2022-08-25T04:42:04.549Z,4.07
2022-08-25T04:44:32.970Z,4.30
2022-08-25T04:47:02.150Z,3.97
2022-08-25T04:49:30.090Z,4.53
2022-08-25T04:51:57.937Z,4.77
2022-08-25T04:54:25.973Z,4.40
2022-08-25T04:56:56.449Z,3.90
2022-08-25T04:59:29.467Z,4.00
2022-08-25T05:02:03.387Z,4.37
2022-08-25T05:04:35.321Z,3.87
2022-08-25T05:07:04.904Z,4.33
2022-08-25T05:09:33.092Z,4.20
2022-08-25T05:12:03.948Z,4.07
2022-08-25T05:14:33.129Z,4.80
2022-08-25T05:17:02.106Z,4.30
2022-08-25T05:19:30.067Z,5.10
2022-08-25T05:21:58.136Z,4.50
2022-08-25T05:24:28.204Z,4.67
2022-08-25T05:26:56.835Z,4.83
2022-08-25T05:29:25.204Z,4.83
2022-08-25T05:31:54.443Z,4.53
2022-08-25T05:34:22.249Z,5.17
2022-08-25T05:36:51.601Z,5.70
2022-08-25T05:39:19.280Z,4.60
2022-08-25T05:41:46.846Z,4.93
2022-08-25T05:44:17.899Z,5.13
2022-08-25T05:46:48.812Z,5.90
2022-08-25T05:49:16.343Z,4.97
2022-08-25T05:51:43.936Z,4.83
2022-08-25T05:54:11.497Z,5.00
2022-08-25T05:56:40.288Z,5.37
2022-08-25T05:59:09.753Z,4.93
2022-08-25T06:01:55.811Z,5.00
2022-08-25T06:04:23.488Z,5.20
2022-08-25T06:06:53.953Z,4.63
2022-08-25T06:09:23.912Z,5.90
2022-08-25T06:11:54.929Z,4.60
2022-08-25T06:14:24.793Z,4.40
2022-08-25T06:16:53.500Z,5.10
2022-08-25T06:19:23.563Z,5.30
2022-08-25T06:21:58.551Z,4.50
2022-08-25T06:24:29.747Z,4.77
2022-08-25T06:26:58.344Z,5.03
2022-08-25T06:29:26.923Z,4.50
2022-08-25T06:31:54.560Z,4.83
2022-08-25T06:34:24.169Z,4.90
2022-08-25T06:36:53.139Z,5.10
2022-08-25T06:39:21.021Z,4.67
2022-08-25T06:41:57.309Z,4.30
2022-08-25T06:44:26.394Z,4.50
2022-08-25T06:46:54.255Z,5.03
2022-08-25T06:49:22.528Z,4.37
2022-08-25T06:51:50.672Z,4.30
2022-08-25T06:54:18.209Z,4.73
2022-08-25T06:56:45.751Z,4.27
2022-08-25T06:59:13.605Z,4.70
2022-08-25T07:01:41.439Z,4.70
2022-08-25T07:04:13.084Z,4.83
2022-08-25T07:06:41.928Z,4.27
2022-08-25T07:09:13.257Z,4.47
2022-08-25T07:11:44.095Z,4.65
2022-08-25T07:14:17.264Z,4.60
2022-08-25T07:16:49.597Z,4.63
2022-08-25T07:19:21.106Z,4.60
2022-08-25T07:21:54.339Z,4.83
2022-08-25T07:24:24.145Z,4.50
2022-08-25T07:26:53.051Z,4.23
2022-08-25T07:29:31.952Z,4.13
2022-08-25T07:32:02.691Z,4.87
2022-08-25T07:34:52.183Z,4.30
2022-08-25T07:37:48.421Z,4.80
2022-08-25T07:40:23.836Z,4.20
2022-08-25T07:42:58.359Z,4.40
2022-08-25T07:45:32.960Z,4.77
2022-08-25T07:48:12.088Z,4.73
2022-08-25T07:50:47.748Z,4.13
2022-08-25T07:53:18.334Z,4.50
2022-08-25T07:55:47.277Z,5.27
2022-08-25T07:58:15.822Z,4.33
2022-08-25T08:00:43.408Z,4.23
2022-08-25T08:03:19.943Z,3.93
2022-08-25T08:05:59.873Z,4.20
2022-08-25T08:08:29.367Z,4.93
2022-08-25T08:11:05.304Z,4.17
2022-08-25T08:13:38.033Z,4.30
2022-08-25T08:16:17.358Z,5.07
2022-08-25T08:18:47.669Z,4.47
2022-08-25T08:21:35.096Z,5.05
2022-08-25T08:24:07.580Z,4.90
2022-08-25T08:26:57.760Z,4.20
2022-08-25T08:29:26.526Z,4.22
2022-08-25T08:31:54.818Z,4.30
2022-08-25T08:34:24.911Z,4.40
2022-08-25T08:36:53.925Z,4.17
2022-08-25T08:39:22.068Z,4.70
2022-08-25T08:42:23.150Z,4.57
2022-08-25T08:45:31.210Z,4.83
2022-08-25T08:49:02.779Z,4.70
2022-08-25T08:51:56.342Z,4.20
2022-08-25T08:54:30.016Z,4.55
2022-08-25T08:57:19.747Z,4.10
2022-08-25T09:00:01.873Z,3.90
2022-08-25T09:03:12.238Z,4.45
2022-08-25T09:05:53.808Z,5.05
2022-08-25T09:08:21.366Z,4.25
2022-08-25T09:11:43.889Z,4.35
2022-08-25T09:15:18.943Z,5.40
2022-08-25T09:18:51.461Z,4.53
2022-08-25T09:21:48.736Z,4.32
2022-08-25T09:25:05.367Z,4.30
2022-08-25T09:28:37.202Z,5.10
2022-08-25T09:31:35.867Z,4.43
2022-08-25T09:34:19.302Z,4.70
2022-08-25T09:36:48.782Z,4.40
2022-08-25T09:39:16.683Z,4.50
2022-08-25T09:42:00.512Z,4.55
2022-08-25T09:44:45.565Z,4.63
2022-08-25T09:47:19.019Z,4.68
2022-08-25T09:50:18.402Z,5.97
2022-08-25T09:52:46.643Z,4.30
2022-08-25T09:55:34.509Z,5.17
2022-08-25T09:58:24.536Z,4.00
2022-08-25T10:01:22.433Z,3.73
2022-08-25T10:04:06.740Z,5.00
2022-08-25T10:06:48.185Z,4.37
2022-08-25T10:09:39.916Z,4.80
2022-08-25T10:12:42.968Z,3.90
2022-08-25T10:15:30.028Z,4.50
2022-08-25T10:18:29.897Z,4.70
2022-08-25T10:21:17.583Z,5.00
2022-08-25T10:23:56.141Z,4.40
2022-08-25T10:27:28.604Z,4.70
2022-08-25T10:30:20.013Z,4.40
2022-08-25T10:33:27.627Z,3.63
2022-08-25T10:36:20.439Z,4.50
2022-08-25T10:39:01.564Z,4.50
2022-08-25T10:42:11.757Z,4.00
2022-08-25T10:45:45.214Z,4.37
2022-08-25T10:49:04.263Z,3.97
2022-08-25T10:52:01.506Z,4.17
2022-08-25T10:55:07.898Z,5.20
2022-08-25T10:58:30.777Z,4.27
2022-08-25T11:01:44.128Z,4.77
2022-08-25T11:04:42.815Z,4.20
2022-08-25T11:07:47.780Z,4.70
2022-08-25T11:10:53.064Z,4.07
2022-08-25T11:14:11.036Z,4.80
2022-08-25T11:17:18.702Z,4.17
2022-08-25T11:20:26.575Z,4.40
2022-08-25T11:23:50.564Z,5.00
2022-08-25T11:26:36.599Z,4.33
2022-08-25T11:29:22.061Z,3.97
2022-08-25T11:31:54.686Z,4.20
2022-08-25T11:34:23.532Z,3.93
2022-08-25T11:37:32.528Z,4.77
2022-08-25T11:40:40.937Z,4.60
2022-08-25T11:43:53.030Z,4.73
2022-08-25T11:47:02.217Z,4.60
2022-08-25T11:50:30.150Z,4.37
2022-08-25T11:53:28.285Z,4.77
2022-08-25T11:56:06.794Z,5.00
2022-08-25T11:58:46.003Z,4.20
2022-08-25T12:01:43.214Z,4.70
2022-08-25T12:04:44.975Z,4.60
2022-08-25T12:07:28.730Z,4.07
2022-08-25T12:09:56.263Z,4.40
2022-08-25T12:12:45.684Z,4.90
2022-08-25T12:15:48.038Z,4.67
2022-08-25T12:18:23.019Z,4.67
2022-08-25T12:20:56.495Z,4.50
2022-08-25T12:23:35.622Z,4.83
2022-08-25T12:26:51.752Z,4.23
2022-08-25T12:30:31.380Z,4.50
2022-08-25T12:33:46.593Z,4.83
2022-08-25T12:36:35.830Z,4.57
2022-08-25T12:39:29.582Z,4.33
2022-08-25T12:42:23.324Z,4.03
2022-08-25T12:45:20.762Z,4.83
2022-08-25T12:47:51.222Z,4.53
2022-08-25T12:50:46.315Z,4.57
2022-08-25T12:53:57.860Z,5.10
2022-08-25T12:56:47.770Z,4.20
2022-08-25T12:59:48.799Z,4.97
2022-08-25T13:03:21.957Z,4.83
2022-08-25T13:06:56.416Z,5.50
2022-08-25T13:10:19.206Z,5.10
2022-08-25T13:13:56.330Z,4.50
2022-08-25T13:16:29.843Z,5.07
2022-08-25T13:19:06.868Z,4.40
2022-08-25T13:21:43.499Z,4.73
2022-08-25T13:24:41.939Z,4.47
2022-08-25T13:27:28.252Z,4.50
2022-08-25T13:30:03.752Z,4.57
2022-08-25T13:32:39.699Z,4.43
2022-08-25T13:35:33.192Z,4.30
2022-08-25T13:38:18.367Z,4.17
2022-08-25T13:40:46.137Z,4.00
2022-08-25T13:43:16.430Z,4.67
2022-08-25T13:45:50.607Z,4.60
2022-08-25T13:48:49.496Z,4.80
2022-08-25T13:51:31.445Z,4.60
2022-08-25T13:54:07.291Z,4.40
2022-08-25T13:56:42.673Z,4.67
2022-08-25T13:59:40.180Z,4.80
2022-08-25T14:02:15.209Z,5.10
2022-08-25T14:04:51.190Z,4.60
2022-08-25T14:07:34.147Z,5.00
2022-08-25T14:10:36.627Z,4.20
2022-08-25T14:13:45.627Z,4.50
2022-08-25T14:16:25.488Z,4.90
2022-08-25T14:19:00.889Z,4.70
2022-08-25T14:21:34.674Z,4.87
2022-08-25T14:24:03.194Z,4.27
2022-08-25T14:26:30.824Z,4.80
2022-08-25T14:28:58.499Z,4.00
2022-08-25T14:31:40.619Z,5.00
2022-08-25T14:34:19.369Z,4.10
2022-08-25T14:36:49.939Z,4.30
2022-08-25T14:39:19.317Z,4.70
2022-08-25T14:41:53.042Z,4.90
2022-08-25T14:44:22.814Z,4.47
2022-08-25T14:46:57.343Z,4.47
2022-08-25T14:49:35.213Z,4.00
2022-08-25T14:52:25.451Z,3.93
2022-08-25T14:54:54.593Z,3.63
2022-08-25T14:57:22.867Z,4.37
2022-08-25T14:59:52.654Z,4.80
2022-08-25T15:02:29.684Z,4.60
2022-08-25T15:05:06.006Z,5.17
2022-08-25T15:07:53.937Z,5.27
2022-08-25T15:10:21.937Z,4.83
2022-08-25T15:12:53.799Z,5.47
2022-08-25T15:15:22.162Z,5.00
2022-08-25T15:17:50.734Z,5.40
2022-08-25T15:20:19.275Z,4.57
2022-08-25T15:22:48.220Z,5.37
2022-08-25T15:25:16.805Z,5.13
2022-08-25T15:27:45.143Z,5.80
2022-08-25T15:30:15.107Z,5.33
2022-08-25T15:32:43.294Z,5.13
2022-08-25T15:35:12.583Z,4.23
2022-08-25T15:37:42.895Z,5.17
2022-08-25T15:40:11.368Z,4.47
2022-08-25T15:42:42.769Z,5.23
2022-08-25T15:45:14.453Z,5.13
2022-08-25T15:47:42.225Z,4.20
2022-08-25T15:50:25.435Z,4.30
2022-08-25T15:52:54.056Z,4.27
2022-08-25T15:55:21.650Z,5.00
2022-08-25T15:57:49.904Z,5.60
2022-08-25T16:00:19.196Z,4.23
2022-08-25T16:02:49.834Z,4.33
2022-08-25T16:05:18.411Z,4.77
2022-08-25T16:07:51.694Z,4.07
2022-08-25T16:10:19.962Z,4.30
2022-08-25T16:12:47.752Z,4.70
2022-08-25T16:15:16.180Z,5.00
2022-08-25T16:17:45.957Z,5.03
2022-08-25T16:20:17.912Z,4.50
2022-08-25T16:22:45.474Z,4.50
2022-08-25T16:25:15.957Z,5.27
2022-08-25T16:27:45.118Z,4.63
2022-08-25T16:30:17.763Z,4.70
2022-08-25T16:32:46.848Z,4.43
2022-08-25T16:35:14.859Z,4.50
2022-08-25T16:37:42.767Z,5.10
2022-08-25T16:40:14.727Z,4.10
2022-08-25T16:42:42.868Z,4.27
2022-08-25T16:45:11.835Z,4.73
2022-08-25T16:47:42.724Z,4.40
2022-08-25T16:50:11.413Z,4.60
2022-08-25T16:52:59.267Z,4.30
2022-08-25T16:55:39.280Z,4.53
2022-08-25T16:58:13.416Z,4.37
2022-08-25T17:00:44.748Z,5.00
2022-08-25T17:03:13.080Z,4.27
2022-08-25T17:05:43.616Z,4.97
2022-08-25T17:08:30.532Z,4.47
2022-08-25T17:11:22.736Z,4.33
2022-08-25T17:13:56.514Z,4.17
2022-08-25T17:16:31.580Z,4.90
2022-08-25T17:19:11.733Z,4.90
2022-08-25T17:21:46.012Z,4.33
2022-08-25T17:24:16.800Z,4.43
2022-08-25T17:26:49.986Z,4.80
2022-08-25T17:29:19.688Z,5.57
2022-08-25T17:31:48.668Z,5.33
2022-08-25T17:34:21.335Z,4.80
2022-08-25T17:36:53.406Z,5.23
2022-08-25T17:39:23.239Z,4.87
2022-08-25T17:41:52.599Z,5.13
2022-08-25T17:44:20.903Z,4.67
2022-08-25T17:46:49.065Z,5.00
2022-08-25T17:49:17.922Z,5.17
2022-08-25T17:51:45.900Z,5.47
2022-08-25T17:54:14.963Z,5.07
2022-08-25T17:56:43.052Z,5.33
2022-08-25T17:59:12.172Z,4.87
2022-08-25T18:01:41.009Z,5.00
2022-08-25T18:04:17.128Z,5.20
2022-08-25T18:06:48.645Z,5.10
2022-08-25T18:09:17.360Z,5.57
2022-08-25T18:11:46.464Z,4.70
2022-08-25T18:14:16.770Z,5.20
2022-08-25T18:16:46.127Z,4.63
2022-08-25T18:19:14.673Z,5.40
2022-08-25T18:21:43.491Z,5.10
2022-08-25T18:24:13.272Z,5.37
2022-08-25T18:26:42.489Z,5.90
2022-08-25T18:29:13.247Z,6.00
2022-08-25T18:31:42.391Z,5.80
2022-08-25T18:34:11.636Z,5.87
2022-08-25T18:36:41.289Z,5.73
2022-08-25T18:39:32.766Z,5.20
2022-08-25T18:42:06.989Z,6.10
2022-08-25T18:44:34.625Z,5.97
2022-08-25T18:47:07.473Z,6.47
2022-08-25T18:49:37.210Z,6.63
2022-08-25T18:52:05.942Z,6.20
2022-08-25T18:54:33.525Z,6.33
2022-08-25T18:57:04.752Z,6.07
2022-08-25T18:59:37.285Z,6.22
2022-08-25T19:02:06.671Z,6.33
2022-08-25T19:04:34.581Z,5.50
2022-08-25T19:07:02.975Z,5.73
2022-08-25T19:09:33.348Z,5.80
2022-08-25T19:12:02.637Z,6.20
2022-08-25T19:14:30.835Z,6.30
2022-08-25T19:16:59.327Z,7.03
2022-08-25T19:19:28.836Z,5.90
2022-08-25T19:21:59.202Z,5.53
2022-08-25T19:24:28.344Z,5.93
2022-08-25T19:26:58.069Z,7.00
2022-08-25T19:29:25.685Z,6.10
2022-08-25T19:31:53.631Z,6.23
2022-08-25T19:34:35.648Z,5.73
2022-08-25T19:37:07.926Z,6.43
2022-08-25T19:39:42.151Z,5.60
2022-08-25T19:42:37.305Z,6.27
2022-08-25T19:45:11.542Z,6.33
2022-08-25T19:47:41.557Z,5.60
2022-08-25T19:50:16.787Z,7.07
2022-08-25T19:52:46.934Z,6.20
2022-08-25T19:55:19.774Z,6.17
2022-08-25T19:57:48.134Z,6.10
2022-08-25T20:00:32.697Z,6.17
2022-08-25T20:03:02.219Z,5.97
2022-08-25T20:05:31.684Z,6.03
2022-08-25T20:08:00.203Z,6.10
2022-08-25T20:10:34.728Z,6.20
2022-08-25T20:13:10.138Z,6.53
2022-08-25T20:15:38.041Z,6.30
2022-08-25T20:18:07.713Z,6.53
2022-08-25T20:20:36.255Z,6.27
2022-08-25T20:23:22.881Z,5.83
2022-08-25T20:25:51.397Z,6.90
2022-08-25T20:28:19.302Z,6.20
2022-08-25T20:30:47.124Z,6.47
2022-08-25T20:33:20.162Z,6.43
2022-08-25T20:35:50.893Z,6.00
2022-08-25T20:38:20.892Z,6.77
2022-08-25T20:40:48.386Z,6.70
2022-08-25T20:43:16.352Z,6.70
2022-08-25T20:45:44.061Z,6.50
2022-08-25T20:48:11.869Z,6.87
2022-08-25T20:50:40.038Z,5.57
2022-08-25T20:53:10.212Z,6.20
2022-08-25T20:55:43.862Z,6.93
2022-08-25T20:58:14.194Z,6.60
2022-08-25T21:00:46.917Z,6.43
2022-08-25T21:03:14.519Z,6.30
2022-08-25T21:05:44.071Z,6.67
2022-08-25T21:08:12.063Z,6.20
2022-08-25T21:10:40.957Z,6.53
2022-08-25T21:13:08.501Z,6.50
2022-08-25T21:15:40.474Z,6.40
2022-08-25T21:18:08.475Z,5.87
2022-08-25T21:20:39.312Z,6.20
2022-08-25T21:23:08.357Z,6.50
2022-08-25T21:25:42.357Z,6.90
2022-08-25T21:28:11.249Z,6.63
2022-08-25T21:30:47.205Z,7.70
2022-08-25T21:33:15.510Z,6.50
2022-08-25T21:35:43.457Z,6.37
2022-08-25T21:38:12.840Z,6.70
2022-08-25T21:40:44.860Z,6.60
2022-08-25T21:43:12.737Z,6.43
2022-08-25T21:45:46.626Z,6.33
2022-08-25T21:48:14.812Z,6.23
2022-08-25T21:50:42.547Z,7.13
2022-08-25T21:53:10.509Z,6.70
2022-08-25T21:55:44.259Z,5.83
2022-08-25T21:58:13.336Z,7.03
2022-08-25T22:00:41.221Z,6.20
2022-08-25T22:03:08.915Z,7.10
2022-08-25T22:05:40.577Z,7.77
2022-08-25T22:08:08.201Z,6.87
2022-08-25T22:10:35.775Z,8.43
2022-08-25T22:13:05.584Z,7.50
2022-08-25T22:15:33.096Z,6.50
2022-08-25T22:18:00.640Z,7.20
2022-08-25T22:20:28.916Z,8.50
2022-08-25T22:22:56.590Z,8.13
2022-08-25T22:25:24.432Z,7.90
2022-08-25T22:27:56.621Z,7.30
2022-08-25T22:30:29.328Z,6.60
2022-08-25T22:32:59.122Z,6.90
2022-08-25T22:35:32.732Z,7.40
2022-08-25T22:38:02.272Z,8.00
2022-08-25T22:40:39.262Z,7.17
2022-08-25T22:43:10.980Z,7.60
2022-08-25T22:45:38.796Z,7.00
2022-08-25T22:48:07.344Z,7.60
2022-08-25T22:50:37.506Z,7.93
2022-08-25T22:53:05.694Z,7.40
2022-08-25T22:55:33.450Z,7.47
2022-08-25T22:58:00.942Z,6.87
2022-08-25T23:00:29.065Z,7.07
2022-08-25T23:02:56.610Z,7.30
2022-08-25T23:05:24.209Z,7.43
2022-08-25T23:07:51.647Z,8.10
2022-08-25T23:10:20.943Z,7.30
2022-08-25T23:12:49.267Z,7.40
2022-08-25T23:15:16.839Z,8.33
2022-08-25T23:17:44.965Z,7.87
2022-08-25T23:20:31.042Z,8.43
2022-08-25T23:23:01.117Z,8.97
2022-08-25T23:25:28.993Z,7.20
2022-08-25T23:27:58.529Z,8.57
2022-08-25T23:30:28.526Z,8.20
2022-08-25T23:32:58.345Z,8.00
2022-08-25T23:35:26.330Z,7.50
2022-08-25T23:37:54.489Z,8.50
2022-08-25T23:40:22.352Z,7.90
2022-08-25T23:42:50.185Z,8.10
2022-08-25T23:45:17.877Z,9.50
2022-08-25T23:47:45.496Z,7.60
2022-08-25T23:50:13.221Z,8.90
2022-08-25T23:52:40.770Z,8.33
2022-08-25T23:55:08.952Z,8.50
2022-08-25T23:57:36.454Z,8.47
